createdAt,value
2022-07-29T00:01:19.657Z,75.68
2022-07-29T00:03:47.400Z,75.62
2022-07-29T00:06:16.295Z,75.13
2022-07-29T00:08:43.330Z,75.61
2022-07-29T00:11:10.478Z,76.03
2022-07-29T00:13:37.723Z,75.67
2022-07-29T00:16:05.715Z,77.82
2022-07-29T00:18:34.013Z,76.63
2022-07-29T00:21:01.460Z,76.49
2022-07-29T00:23:29.851Z,76.89
2022-07-29T00:25:57.722Z,77.07
2022-07-29T00:28:24.794Z,76.73
2022-07-29T00:30:51.818Z,77.28
2022-07-29T00:33:19.023Z,76.91
2022-07-29T00:35:46.037Z,76.69
2022-07-29T00:38:17.209Z,77.44
2022-07-29T00:40:46.276Z,78.00
2022-07-29T00:43:16.289Z,77.96
2022-07-29T00:45:44.118Z,77.86
2022-07-29T00:48:11.574Z,78.53
2022-07-29T00:50:39.892Z,79.45
2022-07-29T00:53:10.050Z,80.11
2022-07-29T00:55:37.329Z,79.78
2022-07-29T00:58:04.879Z,81.00
2022-07-29T01:00:32.381Z,80.44
2022-07-29T01:03:00.190Z,80.85
2022-07-29T01:05:50.994Z,80.61
2022-07-29T01:08:19.801Z,81.66
2022-07-29T01:10:48.834Z,81.43
2022-07-29T01:13:18.973Z,81.63
2022-07-29T01:16:00.207Z,81.71
2022-07-29T01:18:40.305Z,81.62
2022-07-29T01:21:54.488Z,82.80
2022-07-29T01:24:38.478Z,83.13
2022-07-29T01:27:39.481Z,83.80
2022-07-29T01:30:07.699Z,83.38
2022-07-29T01:32:41.809Z,83.37
2022-07-29T01:35:29.764Z,83.43
2022-07-29T01:38:13.629Z,83.96
2022-07-29T01:41:06.182Z,84.20
2022-07-29T01:43:52.785Z,84.29
2022-07-29T01:46:39.383Z,84.54
2022-07-29T01:49:28.319Z,84.10
2022-07-29T01:52:22.978Z,85.23
2022-07-29T01:55:12.837Z,85.39
2022-07-29T01:57:47.561Z,86.02
2022-07-29T02:00:16.576Z,87.05
2022-07-29T02:02:50.714Z,87.35
2022-07-29T02:05:24.440Z,86.64
2022-07-29T02:07:58.912Z,87.08
2022-07-29T02:10:33.970Z,87.49
2022-07-29T02:13:04.645Z,87.62
2022-07-29T02:15:36.854Z,87.71
2022-07-29T02:18:23.372Z,88.44
2022-07-29T02:20:58.921Z,89.39
2022-07-29T02:23:28.386Z,89.33
2022-07-29T02:26:00.587Z,89.00
2022-07-29T02:28:31.970Z,89.20
2022-07-29T02:31:05.183Z,89.28
2022-07-29T02:33:35.512Z,90.42
2022-07-29T02:36:04.669Z,89.74
2022-07-29T02:38:54.457Z,90.22
2022-07-29T02:41:38.303Z,89.14
2022-07-29T02:44:14.390Z,90.61
2022-07-29T02:47:02.588Z,90.83
2022-07-29T02:49:55.033Z,90.78
2022-07-29T02:52:45.488Z,91.81
2022-07-29T02:55:45.914Z,91.91
2022-07-29T02:58:43.640Z,92.10
2022-07-29T03:01:23.823Z,92.57
2022-07-29T03:03:56.112Z,91.74
2022-07-29T03:06:38.763Z,91.79
2022-07-29T03:09:13.529Z,92.08
2022-07-29T03:11:49.432Z,92.17
2022-07-29T03:14:21.426Z,92.07
2022-07-29T03:16:51.979Z,91.76
2022-07-29T03:19:21.405Z,92.10
2022-07-29T03:21:49.255Z,92.21
2022-07-29T03:24:36.294Z,91.66
2022-07-29T03:27:06.424Z,92.08
2022-07-29T03:29:34.735Z,92.12
2022-07-29T03:32:08.688Z,92.73
2022-07-29T03:34:38.757Z,92.37
2022-07-29T03:37:08.054Z,91.97
2022-07-29T03:39:43.642Z,92.34
2022-07-29T03:42:19.120Z,92.48
2022-07-29T03:44:51.439Z,92.17
2022-07-29T03:47:50.007Z,93.08
2022-07-29T03:50:18.104Z,92.01
2022-07-29T03:52:45.610Z,91.62
2022-07-29T03:55:15.076Z,91.79
2022-07-29T03:57:45.520Z,92.97
2022-07-29T04:00:14.481Z,92.45
2022-07-29T04:02:46.069Z,92.87
2022-07-29T04:05:16.091Z,92.07
2022-07-29T04:07:49.082Z,91.74
2022-07-29T04:10:30.658Z,91.40
2022-07-29T04:13:00.984Z,90.98
2022-07-29T04:15:30.986Z,91.00
2022-07-29T04:17:59.952Z,91.29
2022-07-29T04:20:27.031Z,92.24
2022-07-29T04:22:54.097Z,92.52
2022-07-29T04:25:21.230Z,92.25
2022-07-29T04:28:03.832Z,92.30
2022-07-29T04:30:33.815Z,92.90
2022-07-29T04:33:05.484Z,91.61
2022-07-29T04:35:38.668Z,92.29
2022-07-29T04:38:15.542Z,92.28
2022-07-29T04:40:43.039Z,93.06
2022-07-29T04:43:10.058Z,92.04
2022-07-29T04:45:38.957Z,92.86
2022-07-29T04:48:06.421Z,90.80
2022-07-29T04:50:34.115Z,91.78
2022-07-29T04:53:01.165Z,90.21
2022-07-29T04:55:28.244Z,89.66
2022-07-29T04:57:55.222Z,88.79
2022-07-29T05:00:24.168Z,88.92
2022-07-29T05:02:59.277Z,88.00
2022-07-29T05:05:26.428Z,88.56
2022-07-29T05:07:53.470Z,87.87
2022-07-29T05:10:20.503Z,86.66
2022-07-29T05:12:48.188Z,85.87
2022-07-29T05:15:15.824Z,87.55
2022-07-29T05:17:42.827Z,87.07
2022-07-29T05:20:11.102Z,86.43
2022-07-29T05:22:38.194Z,86.24
2022-07-29T05:25:09.119Z,87.05
2022-07-29T05:27:37.893Z,86.36
2022-07-29T05:30:06.060Z,85.48
2022-07-29T05:32:33.114Z,86.57
2022-07-29T05:35:00.188Z,85.73
2022-07-29T05:37:27.271Z,84.26
2022-07-29T05:39:56.581Z,83.03
2022-07-29T05:42:26.944Z,83.70
2022-07-29T05:44:54.966Z,82.69
2022-07-29T05:47:22.258Z,84.20
2022-07-29T05:49:49.731Z,81.52
2022-07-29T05:52:16.853Z,80.56
2022-07-29T05:54:44.804Z,80.70
2022-07-29T05:57:22.249Z,79.67
2022-07-29T05:59:51.883Z,77.82
2022-07-29T06:02:19.632Z,76.41
2022-07-29T06:04:47.112Z,77.93
2022-07-29T06:07:14.299Z,74.42
2022-07-29T06:09:41.327Z,73.35
2022-07-29T06:12:12.729Z,71.69
2022-07-29T06:14:40.010Z,73.13
2022-07-29T06:17:07.141Z,72.23
2022-07-29T06:19:37.442Z,72.02
2022-07-29T06:22:05.505Z,68.98
2022-07-29T06:24:32.563Z,68.34
2022-07-29T06:26:59.629Z,66.50
2022-07-29T06:29:26.779Z,66.02
2022-07-29T06:31:53.820Z,66.91
2022-07-29T06:34:20.897Z,67.04
2022-07-29T06:36:48.020Z,67.87
2022-07-29T06:39:15.932Z,66.89
2022-07-29T06:41:43.090Z,66.99
2022-07-29T06:44:12.930Z,67.13
2022-07-29T06:46:40.336Z,67.07
2022-07-29T06:49:07.701Z,65.82
2022-07-29T06:51:35.258Z,66.73
2022-07-29T06:54:03.766Z,65.90
2022-07-29T06:56:40.230Z,65.45
2022-07-29T06:59:13.544Z,64.11
2022-07-29T07:01:44.479Z,65.76
2022-07-29T07:04:14.578Z,65.21
2022-07-29T07:06:42.402Z,66.31
2022-07-29T07:09:09.529Z,64.87
2022-07-29T07:11:36.669Z,64.71
2022-07-29T07:14:04.474Z,63.17
2022-07-29T07:16:32.904Z,63.26
2022-07-29T07:19:00.822Z,65.02
2022-07-29T07:21:30.254Z,63.46
2022-07-29T07:23:58.761Z,62.78
2022-07-29T07:26:26.343Z,62.46
2022-07-29T07:28:54.091Z,61.16
2022-07-29T07:31:21.214Z,58.21
2022-07-29T07:33:48.356Z,60.76
2022-07-29T07:36:15.368Z,57.79
2022-07-29T07:38:42.418Z,57.58
2022-07-29T07:41:09.564Z,57.32
2022-07-29T07:43:36.718Z,57.17
2022-07-29T07:46:03.850Z,53.67
2022-07-29T07:48:31.281Z,55.75
2022-07-29T07:50:58.375Z,52.49
2022-07-29T07:53:25.773Z,53.28
2022-07-29T07:56:09.956Z,53.67
2022-07-29T07:58:38.724Z,51.44
2022-07-29T08:01:05.885Z,51.25
2022-07-29T08:03:34.409Z,52.65
2022-07-29T08:06:01.980Z,56.65
2022-07-29T08:08:29.011Z,53.21
2022-07-29T08:11:00.662Z,55.03
2022-07-29T08:13:31.426Z,52.74
2022-07-29T08:16:12.535Z,51.99
2022-07-29T08:18:43.334Z,49.91
2022-07-29T08:21:10.452Z,48.18
2022-07-29T08:23:46.514Z,47.40
2022-07-29T08:26:16.539Z,48.44
2022-07-29T08:28:49.677Z,47.38
2022-07-29T08:31:18.824Z,47.31
2022-07-29T08:33:46.066Z,47.53
2022-07-29T08:36:14.211Z,49.43
2022-07-29T08:38:41.346Z,49.12
2022-07-29T08:41:08.617Z,51.21
2022-07-29T08:43:38.532Z,51.44
2022-07-29T08:46:06.807Z,49.66
2022-07-29T08:48:35.468Z,48.37
2022-07-29T08:51:04.655Z,50.41
2022-07-29T08:53:34.391Z,50.40
2022-07-29T08:56:03.081Z,53.83
2022-07-29T08:58:36.899Z,48.71
2022-07-29T09:01:06.860Z,49.11
2022-07-29T09:03:40.710Z,48.51
2022-07-29T09:06:08.713Z,47.93
2022-07-29T09:08:36.187Z,46.63
2022-07-29T09:11:05.311Z,44.35
2022-07-29T09:13:32.817Z,45.41
2022-07-29T09:15:59.845Z,44.97
2022-07-29T09:18:43.165Z,43.03
2022-07-29T09:21:35.434Z,44.38
2022-07-29T09:24:10.187Z,43.96
2022-07-29T09:26:45.122Z,41.54
2022-07-29T09:29:25.784Z,39.29
2022-07-29T09:31:56.765Z,39.44
2022-07-29T09:34:32.527Z,36.95
2022-07-29T09:36:59.684Z,38.09
2022-07-29T09:39:46.712Z,38.49
2022-07-29T09:42:29.046Z,36.94
2022-07-29T09:44:56.436Z,36.18
2022-07-29T09:47:26.950Z,35.85
2022-07-29T09:50:00.570Z,36.69
2022-07-29T09:52:31.322Z,37.01
2022-07-29T09:55:18.220Z,35.24
2022-07-29T09:57:47.878Z,36.38
2022-07-29T10:00:20.231Z,35.57
2022-07-29T10:02:49.443Z,35.77
2022-07-29T10:05:36.755Z,34.98
2022-07-29T10:08:04.550Z,37.59
2022-07-29T10:10:37.214Z,34.67
2022-07-29T10:13:16.303Z,34.71
2022-07-29T10:15:47.281Z,36.09
2022-07-29T10:18:18.578Z,36.19
2022-07-29T10:20:46.301Z,35.58
2022-07-29T10:23:13.738Z,35.95
2022-07-29T10:25:45.926Z,35.49
2022-07-29T10:28:16.440Z,35.59
2022-07-29T10:30:51.406Z,34.58
2022-07-29T10:34:05.176Z,35.48
2022-07-29T10:37:19.448Z,36.19
2022-07-29T10:40:47.676Z,34.85
2022-07-29T10:43:42.487Z,34.30
2022-07-29T10:46:14.523Z,34.58
2022-07-29T10:49:24.318Z,34.40
2022-07-29T10:52:06.172Z,35.49
2022-07-29T10:54:52.086Z,35.57
2022-07-29T10:57:54.210Z,34.87
2022-07-29T11:00:30.859Z,35.07
2022-07-29T11:02:59.436Z,36.05
2022-07-29T11:05:40.081Z,35.51
2022-07-29T11:08:19.637Z,35.14
2022-07-29T11:10:50.305Z,37.33
2022-07-29T11:13:47.258Z,37.92
2022-07-29T11:16:20.191Z,36.64
2022-07-29T11:19:26.648Z,37.48
2022-07-29T11:21:58.883Z,37.82
2022-07-29T11:24:35.813Z,38.26
2022-07-29T11:27:22.034Z,38.14
2022-07-29T11:32:48.578Z,40.01
2022-07-29T11:35:37.371Z,38.10
2022-07-29T11:38:23.760Z,38.88
2022-07-29T11:41:36.912Z,38.53
2022-07-29T11:44:04.715Z,37.56
2022-07-29T11:46:53.928Z,37.61
2022-07-29T11:49:32.541Z,37.49
2022-07-29T11:52:15.501Z,37.75
2022-07-29T11:54:58.220Z,39.16
2022-07-29T11:57:37.153Z,40.93
2022-07-29T12:00:12.096Z,41.13
2022-07-29T12:02:43.528Z,38.99
2022-07-29T12:07:02.572Z,40.16
2022-07-29T12:08:19.582Z,39.29
2022-07-29T12:10:51.567Z,39.17
2022-07-29T12:13:22.923Z,39.32
2022-07-29T12:16:04.854Z,37.52
2022-07-29T12:18:33.263Z,38.62
2022-07-29T12:21:04.966Z,36.77
2022-07-29T12:23:36.120Z,35.55
2022-07-29T12:26:10.493Z,36.39
2022-07-29T12:28:39.966Z,36.68
2022-07-29T12:31:14.987Z,36.57
2022-07-29T12:34:02.628Z,36.80
2022-07-29T12:36:30.050Z,37.94
2022-07-29T12:38:57.765Z,37.27
2022-07-29T12:41:24.973Z,37.50
2022-07-29T12:43:56.345Z,38.26
2022-07-29T12:46:23.556Z,37.75
2022-07-29T12:48:56.292Z,37.58
2022-07-29T12:51:38.557Z,39.11
2022-07-29T12:54:14.459Z,37.20
2022-07-29T12:56:46.030Z,37.29
2022-07-29T12:59:24.018Z,36.57
2022-07-29T13:01:53.633Z,38.67
2022-07-29T13:04:34.125Z,39.48
2022-07-29T13:07:09.200Z,37.89
2022-07-29T13:09:46.529Z,37.96
2022-07-29T13:12:16.859Z,38.37
2022-07-29T13:14:51.052Z,37.57
2022-07-29T13:17:32.962Z,36.38
2022-07-29T13:20:13.619Z,36.86
2022-07-29T13:22:45.721Z,36.60
2022-07-29T13:25:12.801Z,34.55
2022-07-29T13:27:40.866Z,36.38
2022-07-29T13:30:11.691Z,35.59
2022-07-29T13:32:38.767Z,35.85
2022-07-29T13:35:09.940Z,37.59
2022-07-29T13:37:41.108Z,36.69
2022-07-29T13:40:10.897Z,34.74
2022-07-29T13:42:38.955Z,36.31
2022-07-29T13:45:08.025Z,34.92
2022-07-29T13:47:35.112Z,33.33
2022-07-29T13:50:06.266Z,33.99
2022-07-29T13:52:35.646Z,33.86
2022-07-29T13:55:04.226Z,33.53
2022-07-29T13:57:31.621Z,32.51
2022-07-29T13:59:58.792Z,33.74
2022-07-29T14:02:26.373Z,33.75
2022-07-29T14:04:55.133Z,32.33
2022-07-29T14:07:23.839Z,33.63
2022-07-29T14:09:51.847Z,33.68
2022-07-29T14:12:20.318Z,31.72
2022-07-29T14:14:47.517Z,32.84
2022-07-29T14:17:15.920Z,32.60
2022-07-29T14:19:43.988Z,31.73
2022-07-29T14:22:11.066Z,32.87
2022-07-29T14:24:39.568Z,31.39
2022-07-29T14:27:09.056Z,31.09
2022-07-29T14:29:38.816Z,30.12
2022-07-29T14:32:08.379Z,30.39
2022-07-29T14:34:37.929Z,30.28
2022-07-29T14:37:07.206Z,28.74
2022-07-29T14:39:42.934Z,29.26
2022-07-29T14:42:15.330Z,30.07
2022-07-29T14:44:42.752Z,29.13
2022-07-29T14:47:10.473Z,28.93
2022-07-29T14:49:37.819Z,29.80
2022-07-29T14:52:05.465Z,30.52
2022-07-29T14:54:32.565Z,28.63
2022-07-29T14:56:59.602Z,28.26
2022-07-29T14:59:27.865Z,30.04
2022-07-29T15:01:55.451Z,28.70
2022-07-29T15:04:22.665Z,28.99
2022-07-29T15:06:50.042Z,28.76
2022-07-29T15:09:17.005Z,28.21
2022-07-29T15:11:44.058Z,27.07
2022-07-29T15:14:12.266Z,27.96
2022-07-29T15:16:44.049Z,29.51
2022-07-29T15:19:14.186Z,26.67
2022-07-29T15:21:41.690Z,26.62
2022-07-29T15:24:20.722Z,28.74
2022-07-29T15:26:48.773Z,26.62
2022-07-29T15:29:16.554Z,26.66
2022-07-29T15:31:44.574Z,28.61
2022-07-29T15:34:11.834Z,27.33
2022-07-29T15:36:54.588Z,26.47
2022-07-29T15:39:23.278Z,25.84
2022-07-29T15:41:51.835Z,27.68
2022-07-29T15:44:19.899Z,28.99
2022-07-29T15:47:04.625Z,30.71
2022-07-29T15:49:47.555Z,28.18
2022-07-29T15:52:24.963Z,29.46
2022-07-29T15:54:57.038Z,27.14
2022-07-29T15:57:25.546Z,26.60
2022-07-29T15:59:53.251Z,26.38
2022-07-29T16:02:20.803Z,25.81
2022-07-29T16:04:48.095Z,27.38
2022-07-29T16:07:16.011Z,25.20
2022-07-29T16:09:49.387Z,23.63
2022-07-29T16:12:21.308Z,25.16
2022-07-29T16:14:51.265Z,25.44
2022-07-29T16:17:19.358Z,25.16
2022-07-29T16:19:46.985Z,25.23
2022-07-29T16:22:14.578Z,26.40
2022-07-29T16:24:41.813Z,27.11
2022-07-29T16:27:09.802Z,27.51
2022-07-29T16:29:37.511Z,27.63
2022-07-29T16:32:06.704Z,29.01
2022-07-29T16:34:34.379Z,28.72
2022-07-29T16:37:01.755Z,29.63
2022-07-29T16:39:29.435Z,30.30
2022-07-29T16:42:00.301Z,30.71
2022-07-29T16:44:28.769Z,31.97
2022-07-29T16:46:58.755Z,31.86
2022-07-29T16:49:28.160Z,31.58
2022-07-29T16:51:55.375Z,32.98
2022-07-29T16:54:22.552Z,32.70
2022-07-29T16:56:49.623Z,32.52
2022-07-29T16:59:16.743Z,33.67
2022-07-29T17:01:43.818Z,33.82
2022-07-29T17:04:12.090Z,34.98
2022-07-29T17:06:41.417Z,34.06
2022-07-29T17:09:12.315Z,33.72
2022-07-29T17:11:53.508Z,35.28
2022-07-29T17:14:25.363Z,33.78
2022-07-29T17:17:01.099Z,33.96
2022-07-29T17:19:36.446Z,34.12
2022-07-29T17:22:15.505Z,34.05
2022-07-29T17:24:47.833Z,34.24
2022-07-29T17:27:15.491Z,32.72
2022-07-29T17:29:42.962Z,31.88
2022-07-29T17:32:11.476Z,31.34
2022-07-29T17:34:43.464Z,31.71
2022-07-29T17:37:12.514Z,31.88
2022-07-29T17:39:42.267Z,32.61
2022-07-29T17:42:16.596Z,34.01
2022-07-29T17:44:43.812Z,34.87
2022-07-29T17:47:15.639Z,34.36
2022-07-29T17:49:45.086Z,34.80
2022-07-29T17:52:12.254Z,35.22
2022-07-29T17:54:39.296Z,35.69
2022-07-29T17:57:06.385Z,36.93
2022-07-29T17:59:33.504Z,37.85
2022-07-29T18:02:00.680Z,36.38
2022-07-29T18:04:28.739Z,36.73
2022-07-29T18:06:56.401Z,35.63
2022-07-29T18:09:23.725Z,36.84
2022-07-29T18:11:51.786Z,37.00
2022-07-29T18:14:19.287Z,36.52
2022-07-29T18:16:46.463Z,36.35
2022-07-29T18:19:13.678Z,36.25
2022-07-29T18:21:51.868Z,36.91
2022-07-29T18:24:27.616Z,36.81
2022-07-29T18:26:56.546Z,38.29
2022-07-29T18:29:24.002Z,38.38
2022-07-29T18:31:51.026Z,39.04
2022-07-29T18:34:18.104Z,37.77
2022-07-29T18:36:46.041Z,38.37
2022-07-29T18:39:20.314Z,39.48
2022-07-29T18:41:51.371Z,38.17
2022-07-29T18:44:22.011Z,38.47
2022-07-29T18:46:52.378Z,39.63
2022-07-29T18:49:20.572Z,39.80
2022-07-29T18:51:48.834Z,39.70
2022-07-29T18:54:18.070Z,41.28
2022-07-29T18:56:47.698Z,41.04
2022-07-29T18:59:17.224Z,41.76
2022-07-29T19:01:44.622Z,40.99
2022-07-29T19:04:11.831Z,42.96
2022-07-29T19:06:40.760Z,42.59
2022-07-29T19:09:08.851Z,42.49
2022-07-29T19:11:38.370Z,43.19
2022-07-29T19:14:06.667Z,42.77
2022-07-29T19:16:33.831Z,43.88
2022-07-29T19:19:01.134Z,42.97
2022-07-29T19:21:28.763Z,43.40
2022-07-29T19:24:00.722Z,43.30
2022-07-29T19:26:36.807Z,43.06
2022-07-29T19:29:05.323Z,42.90
2022-07-29T19:31:32.524Z,43.10
2022-07-29T19:33:59.631Z,43.49
2022-07-29T19:36:27.541Z,43.32
2022-07-29T19:38:54.718Z,43.10
2022-07-29T19:41:21.830Z,44.36
2022-07-29T19:43:50.378Z,44.45
2022-07-29T19:46:20.747Z,45.29
2022-07-29T19:48:48.167Z,45.11
2022-07-29T19:51:15.273Z,44.89
2022-07-29T19:53:42.622Z,46.28
2022-07-29T19:56:09.630Z,46.91
2022-07-29T19:58:36.867Z,47.64
2022-07-29T20:01:10.308Z,47.36
2022-07-29T20:03:40.376Z,47.13
2022-07-29T20:06:07.981Z,48.38
2022-07-29T20:08:35.613Z,47.85
2022-07-29T20:11:03.757Z,50.54
2022-07-29T20:13:33.193Z,47.98
2022-07-29T20:16:02.130Z,48.18
2022-07-29T20:18:29.499Z,47.67
2022-07-29T20:20:57.746Z,47.73
2022-07-29T20:23:24.913Z,47.64
2022-07-29T20:25:52.459Z,48.83
2022-07-29T20:28:21.274Z,48.48
2022-07-29T20:30:48.562Z,48.54
2022-07-29T20:33:16.416Z,47.84
2022-07-29T20:35:43.916Z,49.00
2022-07-29T20:38:15.027Z,48.50
2022-07-29T20:40:45.065Z,48.29
2022-07-29T20:43:12.283Z,48.69
2022-07-29T20:45:39.625Z,48.21
2022-07-29T20:48:08.295Z,48.30
2022-07-29T20:50:36.003Z,48.68
2022-07-29T20:53:03.365Z,49.00
2022-07-29T20:55:32.121Z,49.65
2022-07-29T20:57:59.418Z,49.22
2022-07-29T21:00:26.653Z,49.61
2022-07-29T21:02:53.786Z,48.81
2022-07-29T21:05:21.006Z,49.06
2022-07-29T21:07:48.159Z,49.76
2022-07-29T21:10:18.391Z,49.66
2022-07-29T21:12:48.851Z,49.42
2022-07-29T21:15:16.431Z,50.38
2022-07-29T21:17:47.237Z,49.43
2022-07-29T21:20:19.070Z,51.01
2022-07-29T21:22:46.361Z,51.00
2022-07-29T21:25:13.660Z,50.43
2022-07-29T21:27:59.192Z,50.41
2022-07-29T21:30:26.430Z,50.82
2022-07-29T21:32:53.674Z,51.85
2022-07-29T21:36:02.089Z,50.08
2022-07-29T21:38:07.823Z,51.24
2022-07-29T21:40:34.835Z,51.38
2022-07-29T21:43:01.892Z,50.86
2022-07-29T21:45:29.042Z,51.07
2022-07-29T21:47:56.040Z,51.28
2022-07-29T21:50:23.096Z,50.41
2022-07-29T21:52:50.145Z,50.92
2022-07-29T21:55:18.573Z,50.76
2022-07-29T21:57:46.550Z,50.13
2022-07-29T22:00:17.203Z,50.34
2022-07-29T22:02:44.964Z,51.26
2022-07-29T22:05:14.086Z,50.63
2022-07-29T22:07:55.924Z,50.74
2022-07-29T22:10:30.000Z,50.11
2022-07-29T22:13:00.857Z,50.49
2022-07-29T22:15:30.235Z,50.07
2022-07-29T22:17:57.926Z,49.67
2022-07-29T22:20:25.763Z,50.66
2022-07-29T22:22:53.983Z,49.99
2022-07-29T22:25:22.513Z,50.29
2022-07-29T22:27:49.708Z,50.59
2022-07-29T22:30:17.428Z,50.73
2022-07-29T22:32:44.879Z,50.63
2022-07-29T22:35:12.081Z,51.43
2022-07-29T22:37:40.280Z,51.51
2022-07-29T22:40:08.653Z,51.56
2022-07-29T22:42:36.118Z,51.32
2022-07-29T22:45:10.682Z,50.80
2022-07-29T22:47:46.653Z,51.06
2022-07-29T22:50:16.559Z,51.06
2022-07-29T22:52:43.653Z,50.86
2022-07-29T22:55:11.137Z,50.84
2022-07-29T22:57:38.512Z,51.15
2022-07-29T23:00:07.846Z,51.08
2022-07-29T23:02:36.389Z,51.27
2022-07-29T23:05:04.762Z,51.22
2022-07-29T23:07:33.727Z,51.23
2022-07-29T23:10:01.444Z,51.77
2022-07-29T23:12:28.536Z,51.90
2022-07-29T23:14:55.621Z,52.10
2022-07-29T23:17:22.734Z,52.07
2022-07-29T23:19:49.904Z,52.08
2022-07-29T23:22:18.508Z,52.13
2022-07-29T23:24:45.747Z,52.49
2022-07-29T23:27:12.840Z,52.82
2022-07-29T23:29:39.819Z,52.73
2022-07-29T23:32:07.156Z,53.60
2022-07-29T23:34:34.303Z,53.00
2022-07-29T23:37:01.702Z,53.26
2022-07-29T23:39:28.993Z,53.49
2022-07-29T23:41:56.493Z,53.67
2022-07-29T23:44:23.514Z,53.50
2022-07-29T23:46:50.634Z,53.07
2022-07-29T23:49:17.916Z,53.82
2022-07-29T23:51:44.960Z,53.97
2022-07-29T23:54:12.131Z,54.75
2022-07-29T23:56:39.197Z,54.79
2022-07-29T23:59:06.318Z,54.83
